Time;durP1;ratioP1;P1;durP2;ratioP2;P2;SDS_P1;SDS_P2;PMS_P1;PMS_P2;Temp;Humidity;BMP_temperature;BMP_pressure;BME280_temperature;BME280_humidity;BME280_pressure;Samples;Min_cycle;Max_cycle;Signal;HPM_P1;HPM_P2
2023/08/07 00:01:51;;;;;;;6.07;3.27;;;14.10;99.90;;;;;;4155359;28;20217;-73
2023/08/07 00:03:53;;;;;;;5.40;3.70;;;14.00;99.90;;;;;;4157241;28;20314;-72
2023/08/07 00:05:55;;;;;;;6.17;3.53;;;14.00;99.90;;;;;;4153648;28;20352;-73
2023/08/07 00:07:57;;;;;;;13.27;3.90;;;14.00;99.90;;;;;;4153476;28;20218;-73
2023/08/07 00:09:58;;;;;;;9.83;4.00;;;14.00;99.90;;;;;;4162613;28;20222;-73
2023/08/07 00:12:00;;;;;;;8.97;3.57;;;14.10;99.90;;;;;;4156509;28;20307;-73
2023/08/07 00:14:04;;;;;;;6.90;3.87;;;14.00;99.90;;;;;;4154486;28;20204;-73
2023/08/07 00:16:05;;;;;;;6.17;3.50;;;14.10;99.90;;;;;;4161327;28;20260;-73
2023/08/07 00:18:07;;;;;;;8.07;3.40;;;14.00;99.90;;;;;;4156962;28;20216;-73
2023/08/07 00:20:10;;;;;;;5.77;3.50;;;14.00;99.90;;;;;;4160242;28;20253;-73
2023/08/07 00:22:12;;;;;;;5.53;3.80;;;14.00;99.90;;;;;;4158749;28;20645;-73
2023/08/07 00:24:13;;;;;;;4.80;3.27;;;14.00;99.90;;;;;;4156703;28;20625;-73
2023/08/07 00:26:15;;;;;;;5.83;3.50;;;14.00;99.90;;;;;;4157931;28;20234;-74
2023/08/07 00:28:17;;;;;;;5.27;3.50;;;14.00;99.90;;;;;;4158753;28;20323;-73
2023/08/07 00:30:20;;;;;;;7.27;3.70;;;14.00;99.90;;;;;;4161178;28;20227;-73
2023/08/07 00:32:22;;;;;;;5.00;3.57;;;14.00;99.90;;;;;;4165874;28;20216;-73
2023/08/07 00:34:24;;;;;;;6.37;3.43;;;14.00;99.90;;;;;;4160246;28;20250;-73
2023/08/07 00:36:28;;;;;;;5.90;4.03;;;13.70;99.90;;;;;;4156521;28;20320;-73
2023/08/07 00:38:30;;;;;;;7.20;4.07;;;14.00;99.90;;;;;;4158623;28;20212;-73
2023/08/07 00:40:38;;;;;;;5.87;3.90;;;14.00;99.90;;;;;;4160425;28;20221;-72
2023/08/07 00:42:40;;;;;;;6.23;3.23;;;14.00;99.90;;;;;;4160363;28;20633;-72
2023/08/07 00:44:42;;;;;;;6.77;3.73;;;14.00;99.90;;;;;;4161199;28;20246;-73
2023/08/07 00:46:45;;;;;;;8.03;3.53;;;14.00;99.90;;;;;;4154877;28;20245;-73
2023/08/07 00:48:47;;;;;;;4.63;3.00;;;14.00;99.90;;;;;;4161714;28;20254;-73
2023/08/07 00:50:50;;;;;;;6.87;3.30;;;14.00;99.90;;;;;;4159198;28;20214;-72
2023/08/07 00:52:52;;;;;;;5.67;2.83;;;14.10;99.90;;;;;;4159409;28;20214;-72
2023/08/07 00:54:53;;;;;;;5.43;3.10;;;14.10;99.90;;;;;;4161541;28;20313;-74
2023/08/07 00:56:55;;;;;;;5.93;2.70;;;14.10;99.90;;;;;;4163539;28;20325;-74
2023/08/07 00:58:59;;;;;;;7.27;2.90;;;14.10;99.90;;;;;;4160563;28;20231;-74
2023/08/07 01:01:01;;;;;;;4.53;2.87;;;14.10;99.90;;;;;;4167846;28;20886;-74
2023/08/07 01:03:05;;;;;;;4.63;3.10;;;14.10;99.90;;;;;;4164437;28;20225;-74
2023/08/07 01:05:08;;;;;;;4.60;3.10;;;14.10;99.90;;;;;;4165390;28;20623;-74
2023/08/07 01:07:10;;;;;;;6.57;3.30;;;14.10;99.90;;;;;;4162703;28;20226;-73
2023/08/07 01:09:12;;;;;;;4.87;2.67;;;14.10;99.90;;;;;;4164244;28;20614;-74
2023/08/07 01:11:25;;;;;;;6.47;3.80;;;14.10;99.90;;;;;;4171562;28;20997;-74
2023/08/07 01:13:32;;;;;;;4.27;3.07;;;14.10;99.90;;;;;;4160762;28;20239;-74
2023/08/07 01:15:36;;;;;;;5.60;3.50;;;14.10;99.90;;;;;;4158511;28;20587;-74
2023/08/07 01:17:38;;;;;;;6.53;3.50;;;14.10;99.90;;;;;;4164925;28;20304;-74
2023/08/07 01:19:42;;;;;;;6.57;3.57;;;14.10;99.90;;;;;;4158031;28;20307;-73
2023/08/07 01:21:49;;;;;;;6.67;4.03;;;14.10;99.90;;;;;;4156528;28;20611;-74
2023/08/07 01:23:51;;;;;;;7.50;3.43;;;14.10;99.90;;;;;;4164155;28;20236;-73
2023/08/07 01:25:53;;;;;;;5.43;3.33;;;14.10;99.90;;;;;;4160674;28;20734;-73
2023/08/07 01:28:01;;;;;;;6.73;4.07;;;14.10;99.90;;;;;;4158708;28;20235;-73
2023/08/07 01:30:12;;;;;;;7.93;4.37;;;14.10;99.90;;;;;;4159808;28;20210;-74
2023/08/07 01:32:21;;;;;;;7.00;4.03;;;14.10;99.90;;;;;;4162036;28;20209;-73
2023/08/07 01:34:26;;;;;;;9.50;4.20;;;14.10;99.90;;;;;;4161489;28;20248;-74
2023/08/07 01:36:30;;;;;;;8.73;4.20;;;14.10;99.90;;;;;;4161768;28;20236;-73
2023/08/07 01:38:33;;;;;;;6.83;4.30;;;14.10;99.90;;;;;;4153887;28;20288;-74
2023/08/07 01:40:37;;;;;;;7.83;5.10;;;14.10;99.90;;;;;;4154064;28;20208;-74
2023/08/07 01:42:40;;;;;;;11.80;5.57;;;14.10;99.90;;;;;;4156119;28;20302;-74
2023/08/07 01:44:42;;;;;;;7.23;4.80;;;14.00;99.90;;;;;;4159189;28;20207;-73
2023/08/07 01:46:44;;;;;;;13.73;5.67;;;14.00;99.90;;;;;;4162094;28;20253;-74
2023/08/07 01:48:46;;;;;;;9.83;5.63;;;14.00;99.90;;;;;;4156766;28;20735;-74
2023/08/07 01:50:48;;;;;;;11.73;5.67;;;14.00;99.90;;;;;;4162734;28;20364;-74
2023/08/07 01:52:52;;;;;;;12.43;6.00;;;14.00;99.90;;;;;;4156394;28;20311;-74
2023/08/07 01:54:55;;;;;;;9.73;5.70;;;14.00;99.90;;;;;;4156633;28;20228;-74
2023/08/07 01:56:57;;;;;;;8.67;5.53;;;14.10;99.90;;;;;;4161158;28;20275;-74
2023/08/07 01:58:59;;;;;;;8.13;5.30;;;14.00;99.90;;;;;;4160107;28;20285;-73
2023/08/07 02:01:01;;;;;;;9.30;5.07;;;14.00;99.90;;;;;;4154633;28;20244;-74
2023/08/07 02:03:03;;;;;;;8.20;5.10;;;14.00;99.90;;;;;;4156216;28;20208;-73
2023/08/07 02:05:05;;;;;;;8.13;5.30;;;14.00;99.90;;;;;;4158662;28;20650;-73
2023/08/07 02:07:07;;;;;;;7.30;4.73;;;14.00;99.90;;;;;;4157583;28;20233;-74
2023/08/07 02:09:09;;;;;;;9.37;4.60;;;14.00;99.90;;;;;;4157840;28;20241;-73
2023/08/07 02:11:12;;;;;;;11.17;4.67;;;14.00;99.90;;;;;;4154860;28;20221;-74
2023/08/07 02:13:14;;;;;;;6.77;4.80;;;14.00;99.90;;;;;;4156148;28;20221;-72
2023/08/07 02:15:16;;;;;;;9.43;4.87;;;14.00;99.90;;;;;;4163107;28;20241;-73
2023/08/07 02:17:18;;;;;;;7.10;4.60;;;13.90;99.90;;;;;;4157742;28;20245;-72
2023/08/07 02:19:20;;;;;;;9.30;4.50;;;13.90;99.90;;;;;;4161642;28;20216;-73
2023/08/07 02:21:22;;;;;;;7.93;4.53;;;13.90;99.90;;;;;;4161608;28;20274;-73
2023/08/07 02:23:24;;;;;;;10.57;5.23;;;13.90;99.90;;;;;;4160145;28;20584;-73
2023/08/07 02:25:26;;;;;;;9.67;5.37;;;13.90;99.90;;;;;;4158897;28;20317;-73
2023/08/07 02:27:28;;;;;;;9.23;5.10;;;13.90;99.90;;;;;;4160074;28;20240;-73
2023/08/07 02:29:33;;;;;;;6.83;5.03;;;13.80;99.90;;;;;;4159909;28;20766;-73
2023/08/07 02:31:35;;;;;;;11.77;5.30;;;13.80;99.90;;;;;;4164788;28;20212;-73
2023/08/07 02:33:37;;;;;;;8.83;5.47;;;13.80;99.90;;;;;;4156950;28;20649;-73
2023/08/07 02:35:39;;;;;;;8.53;4.90;;;13.80;99.90;;;;;;4162987;28;20614;-72
2023/08/07 02:37:40;;;;;;;8.37;5.53;;;13.80;99.90;;;;;;4164692;28;20227;-73
2023/08/07 02:39:42;;;;;;;9.50;5.53;;;13.80;99.90;;;;;;4159826;28;20203;-73
2023/08/07 02:41:44;;;;;;;10.80;6.47;;;13.80;99.90;;;;;;4162670;28;20210;-73
2023/08/07 02:43:47;;;;;;;11.40;5.50;;;13.80;99.90;;;;;;4158908;28;20208;-72
2023/08/07 02:45:49;;;;;;;25.80;6.20;;;13.70;99.90;;;;;;4157656;28;20219;-72
2023/08/07 02:47:51;;;;;;;8.80;5.17;;;13.70;99.90;;;;;;4159683;28;20221;-72
2023/08/07 02:49:53;;;;;;;12.77;5.43;;;13.70;99.90;;;;;;4158872;28;20300;-73
2023/08/07 02:51:55;;;;;;;11.10;6.00;;;13.80;99.90;;;;;;4162906;28;20211;-74
2023/08/07 02:53:56;;;;;;;10.23;6.50;;;13.70;99.90;;;;;;4166109;28;20210;-73
2023/08/07 02:55:58;;;;;;;10.43;6.00;;;13.70;99.90;;;;;;4155972;28;20343;-74
2023/08/07 02:58:00;;;;;;;10.70;6.03;;;13.70;99.90;;;;;;4159940;28;20309;-73
2023/08/07 03:00:04;;;;;;;8.43;5.67;;;13.70;99.90;;;;;;4164894;28;20321;-74
2023/08/07 03:02:06;;;;;;;9.77;5.83;;;13.70;99.90;;;;;;4155951;28;20212;-72
2023/08/07 03:04:08;;;;;;;9.70;5.90;;;13.70;99.90;;;;;;4161780;28;20208;-71
2023/08/07 03:06:09;;;;;;;9.20;5.80;;;13.70;99.90;;;;;;4158096;28;20586;-72
2023/08/07 03:08:11;;;;;;;9.77;6.23;;;13.70;99.90;;;;;;4160812;28;20270;-72
2023/08/07 03:10:13;;;;;;;10.97;5.80;;;13.70;99.90;;;;;;4161476;28;20219;-72
2023/08/07 03:12:15;;;;;;;12.67;6.23;;;13.70;99.90;;;;;;4156356;28;20222;-75
2023/08/07 03:14:16;;;;;;;9.43;5.60;;;13.70;99.90;;;;;;4160214;28;20240;-75
2023/08/07 03:16:19;;;;;;;12.87;5.83;;;13.70;99.90;;;;;;4157119;28;20252;-75
2023/08/07 03:18:21;;;;;;;7.87;5.17;;;13.70;99.90;;;;;;4157310;28;20215;-74
2023/08/07 03:20:23;;;;;;;8.30;5.40;;;13.70;99.90;;;;;;4162425;28;20212;-74
2023/08/07 03:22:25;;;;;;;9.20;4.90;;;13.70;99.90;;;;;;4164493;28;20213;-74
2023/08/07 03:24:27;;;;;;;11.27;5.07;;;13.70;99.90;;;;;;4162319;28;20243;-74
2023/08/07 03:26:29;;;;;;;7.43;5.17;;;13.60;99.90;;;;;;4166161;28;20701;-72
2023/08/07 03:28:30;;;;;;;9.17;5.17;;;13.60;99.90;;;;;;4158905;28;20251;-72
2023/08/07 03:30:32;;;;;;;8.80;5.30;;;13.60;99.90;;;;;;4160238;28;20219;-72
2023/08/07 03:32:35;;;;;;;12.83;5.07;;;13.60;99.90;;;;;;4157928;28;20216;-73
2023/08/07 03:34:36;;;;;;;9.23;5.17;;;13.60;99.90;;;;;;4161377;28;20654;-72
2023/08/07 03:36:38;;;;;;;8.60;5.10;;;13.60;99.90;;;;;;4163132;28;20235;-72
2023/08/07 03:38:39;;;;;;;15.53;5.40;;;13.60;99.90;;;;;;4162834;28;20242;-73
2023/08/07 03:40:41;;;;;;;10.10;5.50;;;13.60;99.90;;;;;;4157943;28;20308;-73
2023/08/07 03:42:43;;;;;;;9.27;5.40;;;13.60;99.90;;;;;;4158071;28;20218;-73
2023/08/07 03:44:45;;;;;;;8.17;5.37;;;13.60;99.90;;;;;;4158167;28;20670;-72
2023/08/07 03:46:47;;;;;;;6.87;4.63;;;13.60;99.90;;;;;;4161405;28;20225;-73
2023/08/07 03:48:50;;;;;;;8.33;4.60;;;13.70;99.90;;;;;;4163774;28;20699;-72
2023/08/07 03:50:52;;;;;;;7.97;5.33;;;13.70;99.90;;;;;;4160849;28;20217;-72
2023/08/07 03:52:54;;;;;;;8.77;5.10;;;13.70;99.90;;;;;;4156521;28;20581;-73
2023/08/07 03:54:56;;;;;;;7.10;4.90;;;13.70;99.90;;;;;;4159668;28;20241;-72
2023/08/07 03:56:58;;;;;;;7.77;5.20;;;13.70;99.90;;;;;;4162946;28;20244;-73
2023/08/07 03:59:00;;;;;;;10.63;5.90;;;13.70;99.90;;;;;;4158845;28;20300;-73
2023/08/07 04:01:02;;;;;;;11.50;6.10;;;13.70;99.90;;;;;;4159767;28;20307;-72
2023/08/07 04:03:04;;;;;;;8.43;5.57;;;13.70;99.90;;;;;;4160700;28;20262;-74
2023/08/07 04:05:06;;;;;;;11.13;6.30;;;13.70;99.90;;;;;;4157043;28;20212;-72
2023/08/07 04:07:08;;;;;;;11.07;6.03;;;13.70;99.90;;;;;;4165577;28;20235;-72
2023/08/07 04:09:10;;;;;;;15.30;6.33;;;13.70;99.90;;;;;;4158426;28;20284;-73
2023/08/07 04:11:12;;;;;;;10.20;6.33;;;13.70;99.90;;;;;;4159393;28;20308;-73
2023/08/07 04:13:14;;;;;;;9.23;5.80;;;13.70;99.90;;;;;;4158403;28;20303;-73
2023/08/07 04:15:16;;;;;;;11.07;5.70;;;13.70;99.90;;;;;;4158405;28;20299;-73
2023/08/07 04:17:18;;;;;;;9.57;5.17;;;13.70;99.90;;;;;;4158237;28;20714;-72
2023/08/07 04:19:20;;;;;;;10.10;5.77;;;13.70;99.90;;;;;;4161260;28;20682;-73
2023/08/07 04:21:24;;;;;;;7.87;5.07;;;13.70;99.90;;;;;;4162352;28;20221;-73
2023/08/07 04:23:25;;;;;;;9.20;4.77;;;13.70;99.90;;;;;;4165414;28;20232;-72
2023/08/07 04:25:27;;;;;;;7.10;4.80;;;13.60;99.90;;;;;;4160645;28;20208;-73
2023/08/07 04:27:29;;;;;;;9.20;4.83;;;13.70;99.90;;;;;;4158776;28;20245;-72
2023/08/07 04:29:31;;;;;;;8.50;4.67;;;13.60;99.90;;;;;;4162739;28;20234;-73
2023/08/07 04:31:32;;;;;;;8.70;4.37;;;13.60;99.90;;;;;;4162680;28;20216;-73
2023/08/07 04:33:36;;;;;;;8.93;4.20;;;13.60;99.90;;;;;;4168018;28;20208;-73
2023/08/07 04:35:38;;;;;;;5.97;3.97;;;13.60;99.90;;;;;;4159109;28;20649;-73
2023/08/07 04:37:41;;;;;;;5.53;3.80;;;13.60;99.90;;;;;;4159965;28;20242;-73
2023/08/07 04:39:43;;;;;;;9.83;3.90;;;13.60;99.90;;;;;;4159731;28;20706;-72
2023/08/07 04:41:45;;;;;;;5.30;3.50;;;13.60;99.90;;;;;;4163177;28;20211;-72
2023/08/07 04:43:48;;;;;;;6.57;3.43;;;13.60;99.90;;;;;;4162126;28;20302;-73
2023/08/07 04:45:50;;;;;;;7.63;3.63;;;13.60;99.90;;;;;;4163352;28;20207;-74
2023/08/07 04:47:52;;;;;;;4.63;3.30;;;13.60;99.90;;;;;;4158288;28;20291;-74
2023/08/07 04:49:54;;;;;;;4.33;2.80;;;13.70;99.90;;;;;;4155083;28;20256;-73
2023/08/07 04:51:54;;;;;;;7.30;3.07;;;13.60;99.90;;;;;;4164594;28;20298;-74
2023/08/07 04:53:58;;;;;;;4.43;3.10;;;13.70;99.90;;;;;;4162836;28;20206;-74
2023/08/07 04:56:00;;;;;;;6.40;2.87;;;13.60;99.90;;;;;;4159767;28;20246;-74
2023/08/07 04:58:01;;;;;;;5.53;3.00;;;13.60;99.90;;;;;;4163138;28;20216;-74
2023/08/07 05:00:04;;;;;;;3.30;2.40;;;13.60;99.90;;;;;;4158437;28;20236;-74
2023/08/07 05:02:06;;;;;;;7.43;2.40;;;13.60;99.90;;;;;;4164955;28;20216;-74
2023/08/07 05:04:07;;;;;;;4.90;2.33;;;13.70;99.90;;;;;;4161365;28;21489;-74
2023/08/07 05:06:09;;;;;;;5.03;2.40;;;13.70;99.90;;;;;;4153897;28;20233;-74
2023/08/07 05:08:11;;;;;;;4.37;2.67;;;13.70;99.90;;;;;;4157351;28;20334;-74
2023/08/07 05:10:14;;;;;;;3.97;2.57;;;13.70;99.90;;;;;;4155724;28;20265;-74
2023/08/07 05:12:16;;;;;;;5.57;2.53;;;13.70;99.90;;;;;;4154353;28;20246;-74
2023/08/07 05:14:18;;;;;;;6.67;2.43;;;13.60;99.90;;;;;;4156807;28;20212;-74
2023/08/07 05:16:20;;;;;;;4.77;2.10;;;13.70;99.90;;;;;;4158664;28;20332;-74
2023/08/07 05:18:22;;;;;;;2.23;1.87;;;13.70;99.90;;;;;;4157152;28;20365;-73
2023/08/07 05:20:24;;;;;;;7.07;2.60;;;13.70;99.90;;;;;;4161657;28;20210;-74
2023/08/07 05:22:25;;;;;;;2.73;1.90;;;13.70;99.90;;;;;;4164034;28;20253;-74
2023/08/07 05:24:34;;;;;;;5.20;2.10;;;13.80;99.90;;;;;;4159303;28;20561;-73
2023/08/07 05:26:37;;;;;;;3.33;1.87;;;13.80;99.90;;;;;;4162080;28;20283;-74
2023/08/07 05:28:39;;;;;;;3.37;2.20;;;13.80;99.90;;;;;;4159003;28;20646;-74
2023/08/07 05:30:41;;;;;;;4.97;2.20;;;13.80;99.90;;;;;;4162355;28;20312;-73
2023/08/07 05:32:43;;;;;;;2.50;1.90;;;13.80;99.90;;;;;;4161049;28;20214;-74
2023/08/07 05:34:44;;;;;;;3.27;2.20;;;13.90;99.90;;;;;;4155077;28;20208;-73
2023/08/07 05:36:46;;;;;;;3.40;1.70;;;13.90;99.90;;;;;;4160985;28;20277;-74
2023/08/07 05:38:47;;;;;;;3.57;2.20;;;13.90;99.90;;;;;;4159092;28;20302;-73
2023/08/07 05:40:49;;;;;;;3.97;2.00;;;13.90;99.90;;;;;;4154411;28;20214;-72
2023/08/07 05:42:53;;;;;;;4.77;2.00;;;13.90;99.90;;;;;;4160100;28;20620;-73
2023/08/07 05:44:55;;;;;;;4.53;2.23;;;13.90;99.90;;;;;;4159900;28;20238;-73
2023/08/07 05:46:57;;;;;;;4.47;2.00;;;13.90;99.90;;;;;;4158656;28;20322;-73
2023/08/07 05:48:58;;;;;;;4.03;2.07;;;13.90;99.90;;;;;;4160728;28;22176;-73
2023/08/07 05:51:01;;;;;;;3.17;1.80;;;13.90;99.90;;;;;;4148537;28;20225;-73
2023/08/07 05:53:02;;;;;;;3.40;2.00;;;14.00;99.90;;;;;;4159789;28;20206;-73
2023/08/07 05:55:05;;;;;;;3.50;2.10;;;14.00;99.90;;;;;;4161826;28;20275;-73
2023/08/07 05:57:07;;;;;;;2.73;2.00;;;14.10;99.90;;;;;;4157627;28;20314;-72
2023/08/07 05:59:11;;;;;;;6.80;2.63;;;14.10;99.90;;;;;;4164526;28;20263;-73
2023/08/07 06:01:14;;;;;;;2.50;2.00;;;14.10;99.90;;;;;;4164300;28;20222;-73
2023/08/07 06:03:16;;;;;;;3.40;1.93;;;14.10;99.90;;;;;;4158600;28;20220;-73
2023/08/07 06:05:18;;;;;;;5.17;2.00;;;14.20;99.90;;;;;;4163240;28;20253;-72
2023/08/07 06:07:20;;;;;;;3.90;2.17;;;14.10;99.90;;;;;;4164563;28;20605;-72
2023/08/07 06:09:22;;;;;;;3.17;2.20;;;14.20;99.90;;;;;;4157272;28;20909;-72
2023/08/07 06:11:24;;;;;;;4.50;2.07;;;14.20;99.90;;;;;;4162413;28;20241;-73
2023/08/07 06:13:26;;;;;;;3.87;1.97;;;14.20;99.90;;;;;;4155845;28;20745;-73
2023/08/07 06:15:30;;;;;;;3.60;2.13;;;14.20;99.90;;;;;;4163867;28;20215;-72
2023/08/07 06:17:31;;;;;;;4.13;2.20;;;14.20;99.90;;;;;;4166518;28;20236;-73
2023/08/07 06:19:33;;;;;;;4.40;2.03;;;14.20;99.90;;;;;;4155502;28;20720;-72
2023/08/07 06:21:35;;;;;;;5.57;2.37;;;14.30;99.90;;;;;;4163140;28;20307;-72
2023/08/07 06:23:38;;;;;;;3.73;2.00;;;14.20;99.90;;;;;;4161357;28;20241;-73
2023/08/07 06:25:40;;;;;;;5.47;3.17;;;14.20;99.90;;;;;;4158724;28;20241;-75
2023/08/07 06:27:42;;;;;;;6.50;2.77;;;14.20;99.90;;;;;;4160100;28;20295;-72
2023/08/07 06:29:44;;;;;;;3.07;1.70;;;14.30;99.90;;;;;;4157161;28;20319;-71
2023/08/07 06:31:46;;;;;;;3.30;1.90;;;14.30;99.90;;;;;;4164917;28;20694;-72
2023/08/07 06:33:48;;;;;;;2.57;1.90;;;14.30;99.90;;;;;;4162950;28;20221;-72
2023/08/07 06:35:52;;;;;;;2.80;1.83;;;14.30;99.90;;;;;;4159949;28;20301;-72
2023/08/07 06:37:54;;;;;;;3.80;1.90;;;14.40;99.90;;;;;;4164093;28;20211;-73
2023/08/07 06:39:56;;;;;;;6.23;2.20;;;14.40;99.90;;;;;;4164718;28;20217;-73
2023/08/07 06:42:00;;;;;;;2.70;2.07;;;14.40;99.90;;;;;;4161547;28;20213;-73
2023/08/07 06:44:01;;;;;;;3.13;1.90;;;14.50;99.90;;;;;;4163359;28;20213;-73
2023/08/07 06:46:03;;;;;;;5.03;2.10;;;14.50;99.90;;;;;;4165445;28;20245;-73
2023/08/07 06:48:07;;;;;;;3.03;2.00;;;14.50;99.90;;;;;;4159129;28;20743;-73
2023/08/07 06:50:10;;;;;;;9.20;1.63;;;14.60;99.90;;;;;;4163881;28;20692;-73
2023/08/07 06:52:10;;;;;;;5.80;1.70;;;14.60;99.90;;;;;;4164152;28;20223;-73
2023/08/07 06:54:12;;;;;;;4.63;2.27;;;14.70;99.90;;;;;;4154699;28;20203;-73
2023/08/07 06:56:14;;;;;;;3.70;2.00;;;14.80;99.90;;;;;;4157867;28;20327;-73
2023/08/07 06:58:16;;;;;;;3.53;1.63;;;14.80;99.90;;;;;;4164251;28;20242;-73
2023/08/07 07:00:17;;;;;;;4.17;1.73;;;14.80;99.90;;;;;;4157904;28;20299;-74
2023/08/07 07:02:19;;;;;;;4.17;1.50;;;14.90;99.90;;;;;;4160584;28;20265;-73
2023/08/07 07:04:22;;;;;;;2.03;1.50;;;14.90;99.90;;;;;;4159252;28;20257;-73
2023/08/07 07:06:25;;;;;;;5.30;1.70;;;15.00;99.90;;;;;;4164057;28;20255;-74
2023/08/07 07:08:27;;;;;;;3.63;1.50;;;15.00;99.90;;;;;;4160944;28;20200;-74
2023/08/07 07:10:29;;;;;;;2.50;1.27;;;15.00;99.90;;;;;;4160113;28;20774;-74
2023/08/07 07:12:31;;;;;;;3.33;1.40;;;15.10;99.90;;;;;;4160556;28;20373;-73
2023/08/07 07:14:33;;;;;;;1.97;1.40;;;15.20;99.90;;;;;;4159283;28;20234;-74
2023/08/07 07:16:35;;;;;;;1.43;1.03;;;15.20;99.90;;;;;;4163100;28;20330;-74
2023/08/07 07:18:40;;;;;;;2.97;1.33;;;15.30;99.90;;;;;;4158518;28;20295;-73
2023/08/07 07:20:43;;;;;;;4.07;1.20;;;15.30;99.90;;;;;;4163161;28;20576;-74
2023/08/07 07:22:45;;;;;;;3.10;1.67;;;15.40;99.90;;;;;;4159084;28;20218;-74
2023/08/07 07:24:47;;;;;;;2.70;1.37;;;15.40;99.90;;;;;;4165875;28;20238;-74
2023/08/07 07:26:49;;;;;;;2.63;1.10;;;15.40;99.90;;;;;;4158267;28;20232;-74
2023/08/07 07:28:51;;;;;;;1.30;1.20;;;15.50;99.90;;;;;;4159928;28;20231;-74
2023/08/07 07:30:53;;;;;;;1.93;1.40;;;15.50;99.90;;;;;;4160362;28;20223;-74
2023/08/07 07:32:55;;;;;;;2.20;1.03;;;15.50;99.90;;;;;;4156477;28;20215;-73
2023/08/07 07:34:57;;;;;;;4.13;1.30;;;15.50;99.90;;;;;;4165686;28;20298;-74
2023/08/07 07:37:00;;;;;;;1.67;1.10;;;15.60;99.90;;;;;;4166154;28;20227;-74
2023/08/07 07:39:02;;;;;;;1.37;0.90;;;15.60;99.90;;;;;;4158569;28;20226;-74
2023/08/07 07:41:03;;;;;;;4.40;0.90;;;15.60;99.90;;;;;;4156048;28;20219;-74
2023/08/07 07:43:05;;;;;;;2.70;0.90;;;15.70;99.90;;;;;;4161617;28;20204;-74
2023/08/07 07:45:07;;;;;;;1.60;1.00;;;15.70;99.90;;;;;;4156819;28;20295;-73
2023/08/07 07:47:11;;;;;;;2.87;1.00;;;15.70;99.90;;;;;;4160104;28;20725;-73
2023/08/07 07:49:13;;;;;;;1.37;0.97;;;15.60;99.90;;;;;;4162241;28;20236;-73
2023/08/07 07:51:14;;;;;;;2.13;1.30;;;15.60;99.90;;;;;;4157340;28;20319;-73
2023/08/07 07:53:18;;;;;;;1.67;1.10;;;15.50;99.90;;;;;;4161044;28;20225;-73
2023/08/07 07:55:20;;;;;;;4.87;0.97;;;15.50;99.90;;;;;;4153701;28;20254;-73
2023/08/07 07:57:21;;;;;;;1.00;0.80;;;15.60;99.90;;;;;;4164385;28;20619;-73
2023/08/07 07:59:23;;;;;;;0.87;0.80;;;15.50;99.90;;;;;;4160971;28;20197;-73
2023/08/07 08:01:25;;;;;;;2.70;1.07;;;15.60;99.90;;;;;;4158549;28;20673;-73
2023/08/07 08:03:27;;;;;;;2.40;1.00;;;15.60;99.90;;;;;;4158664;28;20211;-73
2023/08/07 08:05:29;;;;;;;2.80;1.13;;;15.70;99.90;;;;;;4162678;28;20245;-73
2023/08/07 08:07:34;;;;;;;1.60;0.80;;;15.80;99.90;;;;;;4160636;28;20246;-73
2023/08/07 08:09:37;;;;;;;0.80;0.73;;;15.90;99.90;;;;;;4160085;28;20204;-73
2023/08/07 08:11:39;;;;;;;0.80;0.80;;;16.00;99.90;;;;;;4163364;28;20294;-73
2023/08/07 08:13:41;;;;;;;1.77;0.70;;;16.10;99.90;;;;;;4156475;28;20255;-73
2023/08/07 08:15:43;;;;;;;3.20;0.80;;;16.10;99.90;;;;;;4161869;28;20219;-73
2023/08/07 08:17:45;;;;;;;1.60;1.07;;;16.20;99.90;;;;;;4152999;28;20206;-73
2023/08/07 08:19:46;;;;;;;2.50;0.90;;;16.30;99.90;;;;;;4169657;28;20291;-73
2023/08/07 08:21:48;;;;;;;1.10;0.80;;;16.40;99.90;;;;;;4160416;28;20789;-72
2023/08/07 08:23:50;;;;;;;2.30;1.00;;;16.50;99.90;;;;;;4161126;28;20300;-73
2023/08/07 08:25:53;;;;;;;1.83;0.87;;;16.60;99.90;;;;;;4159890;28;20246;-73
2023/08/07 08:27:55;;;;;;;1.37;0.80;;;16.60;99.90;;;;;;4161842;28;20220;-73
2023/08/07 08:29:57;;;;;;;0.93;0.73;;;16.50;99.90;;;;;;4156936;28;20780;-73
2023/08/07 08:31:59;;;;;;;1.10;0.80;;;16.50;99.90;;;;;;4161748;28;20235;-72
2023/08/07 08:34:01;;;;;;;1.70;0.80;;;16.50;99.90;;;;;;4158526;28;20657;-73
2023/08/07 08:36:05;;;;;;;1.13;0.83;;;16.50;99.90;;;;;;4155620;28;20266;-73
2023/08/07 08:38:07;;;;;;;1.57;0.70;;;16.40;99.90;;;;;;4159785;28;20213;-73
2023/08/07 08:40:11;;;;;;;2.93;1.10;;;16.40;99.90;;;;;;4160360;28;20213;-73
2023/08/07 08:42:17;;;;;;;1.00;0.70;;;16.40;99.90;;;;;;4155096;28;20208;-73
2023/08/07 08:44:23;;;;;;;2.77;0.90;;;16.40;99.90;;;;;;4158923;28;20226;-73
2023/08/07 08:46:29;;;;;;;2.60;1.10;;;16.50;99.90;;;;;;4156911;28;20306;-73
2023/08/07 08:48:34;;;;;;;1.87;1.00;;;16.60;99.90;;;;;;4158633;28;20241;-74
2023/08/07 08:50:37;;;;;;;2.07;0.97;;;16.80;99.90;;;;;;4164409;28;20259;-73
2023/08/07 08:52:41;;;;;;;3.47;0.90;;;16.80;99.90;;;;;;4156019;28;20224;-74
2023/08/07 08:54:44;;;;;;;1.30;0.80;;;17.00;99.90;;;;;;4155087;28;20261;-73
2023/08/07 08:56:47;;;;;;;3.23;1.20;;;17.00;99.90;;;;;;4159266;28;20235;-73
2023/08/07 08:58:51;;;;;;;1.27;0.97;;;17.00;99.90;;;;;;4154571;28;20217;-73
2023/08/07 09:00:53;;;;;;;1.63;0.80;;;17.00;99.90;;;;;;4158263;28;20242;-74
2023/08/07 09:02:55;;;;;;;2.50;1.00;;;17.00;99.90;;;;;;4163862;28;20271;-74
2023/08/07 09:04:56;;;;;;;1.43;0.80;;;16.90;99.90;;;;;;4162053;28;20199;-74
2023/08/07 09:06:59;;;;;;;2.77;0.80;;;16.90;99.90;;;;;;4164264;28;20587;-74
2023/08/07 09:09:02;;;;;;;1.50;0.90;;;16.80;99.90;;;;;;4159034;28;20304;-74
2023/08/07 09:11:05;;;;;;;0.83;0.80;;;16.80;99.90;;;;;;4165381;28;20229;-74
2023/08/07 09:13:12;;;;;;;2.23;0.80;;;16.80;99.90;;;;;;4163043;28;20218;-73
2023/08/07 09:15:17;;;;;;;1.60;0.90;;;16.90;99.90;;;;;;4161355;28;20215;-74
2023/08/07 09:17:20;;;;;;;1.53;0.80;;;16.90;99.90;;;;;;4165290;28;20337;-73
2023/08/07 09:19:22;;;;;;;1.13;0.80;;;17.00;99.90;;;;;;4161775;28;20276;-74
2023/08/07 09:21:24;;;;;;;1.00;0.60;;;17.10;99.90;;;;;;4160483;28;20238;-73
2023/08/07 09:23:26;;;;;;;1.37;0.80;;;17.10;99.90;;;;;;4166579;28;20594;-73
2023/08/07 09:25:29;;;;;;;2.57;0.80;;;17.10;99.90;;;;;;4159403;28;20207;-73
2023/08/07 09:27:32;;;;;;;1.77;0.90;;;17.20;99.90;;;;;;4157894;28;20637;-76
2023/08/07 09:29:33;;;;;;;1.80;0.80;;;17.30;99.90;;;;;;4163764;28;20242;-74
2023/08/07 09:31:38;;;;;;;4.90;1.00;;;17.40;99.90;;;;;;4156906;28;20232;-74
2023/08/07 09:33:40;;;;;;;2.70;0.80;;;17.50;99.90;;;;;;4161814;28;20268;-74
2023/08/07 09:35:42;;;;;;;1.47;0.90;;;17.60;99.90;;;;;;4164734;28;20225;-73
2023/08/07 09:37:43;;;;;;;1.80;0.90;;;17.60;99.90;;;;;;4157334;28;20225;-73
2023/08/07 09:39:47;;;;;;;0.70;0.70;;;17.70;99.90;;;;;;4160171;28;20229;-73
2023/08/07 09:41:52;;;;;;;1.40;0.70;;;17.70;99.90;;;;;;4162802;28;20362;-73
2023/08/07 09:43:54;;;;;;;2.27;1.00;;;17.70;99.90;;;;;;4164282;28;20199;-73
2023/08/07 09:46:04;;;;;;;2.80;0.80;;;17.70;99.90;;;;;;4168649;28;20845;-73
2023/08/07 09:48:07;;;;;;;3.37;0.90;;;17.70;99.90;;;;;;4163480;28;20731;-73
2023/08/07 09:50:17;;;;;;;2.30;0.90;;;17.80;99.90;;;;;;4167125;28;20222;-73
2023/08/07 09:52:19;;;;;;;2.87;0.97;;;17.80;99.90;;;;;;4163095;28;20213;-72
2023/08/07 09:54:21;;;;;;;1.07;0.77;;;17.80;99.90;;;;;;4159012;28;20221;-73
2023/08/07 09:56:23;;;;;;;3.60;0.77;;;17.80;99.90;;;;;;4161772;28;20268;-73
2023/08/07 09:58:25;;;;;;;1.10;0.70;;;17.90;99.90;;;;;;4159839;28;20214;-72
2023/08/07 10:00:28;;;;;;;1.27;0.63;;;17.90;99.90;;;;;;4160629;28;20609;-73
2023/08/07 10:02:30;;;;;;;1.67;0.80;;;17.90;99.90;;;;;;4157637;28;20639;-73
2023/08/07 10:04:34;;;;;;;1.47;0.60;;;17.80;99.90;;;;;;4165256;28;20313;-74
2023/08/07 10:06:36;;;;;;;3.23;0.70;;;17.60;99.90;;;;;;4161791;28;20552;-74
2023/08/07 10:08:38;;;;;;;2.10;0.70;;;17.50;99.90;;;;;;4166965;28;20202;-74
2023/08/07 10:10:40;;;;;;;1.20;0.83;;;17.30;99.90;;;;;;4161854;28;20325;-76
2023/08/07 10:12:45;;;;;;;0.70;0.60;;;17.00;99.90;;;;;;4166970;28;20209;-74
2023/08/07 10:14:48;;;;;;;0.60;0.60;;;16.90;99.90;;;;;;4158166;28;20242;-74
2023/08/07 10:16:51;;;;;;;1.47;0.73;;;16.70;99.90;;;;;;4155567;28;20262;-75
2023/08/07 10:18:53;;;;;;;1.90;0.70;;;16.60;99.90;;;;;;4166777;28;20672;-75
2023/08/07 10:20:58;;;;;;;0.90;0.80;;;16.30;99.90;;;;;;4163687;28;20203;-74
2023/08/07 10:23:05;;;;;;;0.80;0.80;;;16.10;99.90;;;;;;4159921;28;20225;-74
2023/08/07 10:25:08;;;;;;;0.90;0.80;;;16.00;99.90;;;;;;4164037;28;20220;-74
2023/08/07 10:27:11;;;;;;;1.70;0.70;;;15.90;99.90;;;;;;4160855;28;20277;-75
2023/08/07 10:29:18;;;;;;;1.57;1.07;;;16.00;99.90;;;;;;4162220;28;20268;-75
2023/08/07 10:31:23;;;;;;;0.90;0.73;;;16.00;99.90;;;;;;4163472;28;20263;-75
2023/08/07 10:33:24;;;;;;;1.03;0.63;;;16.10;99.90;;;;;;4159038;28;20208;-75
2023/08/07 10:35:26;;;;;;;0.83;0.80;;;16.20;99.90;;;;;;4164738;28;20213;-75
2023/08/07 10:37:40;;;;;;;0.80;0.80;;;16.20;99.90;;;;;;4163878;28;20318;-77